Main page
METAR-TAF:

METAR-TAF

Airports :

Scatsta, Shetland, Scotland

Scatsta Airport

latitude: 60-26N, longitude: 001-18W, elevation: 22 m

Current weather observation

The report was made 24 minutes ago, at 01:50 UTC
Wind 10 kt from the South
Temperature 3°C
Humidity 75%
Pressure 1013 hPa
Visibility 10 km or more

METAR: EGPM 170150Z AUTO 17010KT 9999 BKN030/// BKN044/// 03/M01 Q1013

Time: 02:14 (02:14 UTC)

Forecast

The report was made 11 hours and 49 minutes ago, at 14:25 UTC
Forecast valid from 16 at 15 UTC to 16 at 20 UTC
Wind 9 kt from the North/Northwest
Visibility 10 km or more
Few clouds at a height of 2500 ft
Probability 40% :
Temporary
from 16 at 15 UTC to 16 at 20 UTC
Visibility: 6000 m
Broken clouds at a height of 800 ft
rain showers, snow

TAF: EGPM 161425Z 1615/1620 34009KT 9999 FEW025 PROB40 TEMPO 1615/1620 6000 SHRASN BKN008

Weather observations and forecasts of more than 4000 airports (METAR and TAF reports).

The available stations are represented by yellow and red dots on the map.

Hover mouse over dot to see the name of the station.

Then click to see weather observations and forecasts.

To change the map : click on the green buttons with a black cross to zoom in, on the green button with a dash to zoom out, or on the green arrows for adjacent maps.


METAR-TAF: